createdAt,value
2018-06-13T00:01:06.542Z,0.00
2018-06-13T00:02:06.562Z,0.00
2018-06-13T00:03:59.492Z,0.00
2018-06-13T00:04:59.493Z,0.00
2018-06-13T00:06:52.422Z,0.00
2018-06-13T00:07:52.424Z,0.00
2018-06-13T00:09:45.331Z,0.00
2018-06-13T00:10:45.351Z,0.00
2018-06-13T00:12:38.280Z,0.00
2018-06-13T00:13:38.282Z,0.00
2018-06-13T00:15:31.190Z,0.00
2018-06-13T00:16:31.210Z,0.00
2018-06-13T00:18:24.139Z,0.00
2018-06-13T00:19:24.143Z,0.00
2018-06-13T00:21:17.076Z,0.00
2018-06-13T00:22:17.070Z,0.00
2018-06-13T00:24:09.982Z,0.00
2018-06-13T00:25:10.005Z,0.00
2018-06-13T00:27:02.932Z,0.00
2018-06-13T00:28:02.933Z,0.00
2018-06-13T00:29:55.847Z,0.00
2018-06-13T00:30:55.869Z,0.00
2018-06-13T00:32:48.795Z,0.00
2018-06-13T00:33:48.800Z,0.00
2018-06-13T00:35:41.710Z,0.00
2018-06-13T00:36:41.731Z,0.00
2018-06-13T00:38:34.659Z,0.00
2018-06-13T00:39:34.657Z,0.00
2018-06-13T00:41:27.567Z,0.00
2018-06-13T00:42:27.589Z,0.00
2018-06-13T00:44:20.517Z,0.00
2018-06-13T00:45:20.520Z,0.00
2018-06-13T00:47:13.452Z,0.00
2018-06-13T00:48:13.448Z,0.00
2018-06-13T00:50:06.358Z,0.00
2018-06-13T00:51:06.377Z,0.00
2018-06-13T00:52:59.309Z,0.00
2018-06-13T00:53:59.311Z,0.00
2018-06-13T00:55:52.222Z,0.00
2018-06-13T00:56:52.244Z,0.00
2018-06-13T00:58:45.171Z,0.00
2018-06-13T00:59:45.173Z,0.00
2018-06-13T01:01:38.081Z,0.00
2018-06-13T01:02:38.100Z,0.00
2018-06-13T01:04:31.030Z,0.00
2018-06-13T01:05:31.031Z,0.00
2018-06-13T01:07:24.127Z,0.00
2018-06-13T01:08:24.114Z,0.00
2018-06-13T01:10:17.027Z,0.00
2018-06-13T01:11:17.047Z,0.00
2018-06-13T01:13:09.977Z,0.00
2018-06-13T01:14:09.977Z,0.00
2018-06-13T01:16:02.885Z,0.00
2018-06-13T01:17:02.907Z,0.00
2018-06-13T01:18:55.834Z,0.00
2018-06-13T01:19:55.835Z,0.00
2018-06-13T01:21:48.749Z,0.00
2018-06-13T01:22:48.772Z,0.00
2018-06-13T01:24:41.701Z,0.00
2018-06-13T01:25:41.702Z,0.00
2018-06-13T01:27:34.618Z,0.00
2018-06-13T01:28:34.643Z,0.00
2018-06-13T01:30:27.574Z,0.00
2018-06-13T01:31:27.572Z,0.00
2018-06-13T01:33:20.480Z,0.00
2018-06-13T01:34:20.500Z,0.00
2018-06-13T01:36:13.436Z,0.00
2018-06-13T01:37:13.431Z,0.00
2018-06-13T01:39:06.365Z,0.00
2018-06-13T01:40:06.365Z,0.00
2018-06-13T01:41:59.289Z,0.00
2018-06-13T01:42:59.308Z,0.00
2018-06-13T01:44:52.237Z,0.00
2018-06-13T01:45:52.250Z,0.00
2018-06-13T01:47:45.147Z,0.00
2018-06-13T01:48:45.166Z,0.00
2018-06-13T01:50:38.093Z,0.00
2018-06-13T01:51:38.095Z,0.00
2018-06-13T01:53:31.005Z,0.00
2018-06-13T01:54:31.026Z,0.00
2018-06-13T01:56:23.953Z,0.00
2018-06-13T01:57:23.952Z,0.00
2018-06-13T01:59:16.879Z,0.00
2018-06-13T02:00:16.881Z,0.00
2018-06-13T02:02:09.789Z,0.00
2018-06-13T02:03:09.816Z,0.00
2018-06-13T02:05:02.738Z,0.00
2018-06-13T02:06:02.736Z,0.00
2018-06-13T02:07:55.649Z,0.00
2018-06-13T02:08:55.670Z,0.00
2018-06-13T02:10:48.601Z,0.00
2018-06-13T02:11:48.599Z,0.00
2018-06-13T02:13:41.513Z,0.00
2018-06-13T02:14:41.530Z,0.00
2018-06-13T02:16:34.459Z,0.00
2018-06-13T02:17:34.459Z,0.00
2018-06-13T02:19:27.391Z,0.00
2018-06-13T02:20:27.390Z,0.00
2018-06-13T02:22:20.304Z,0.00
2018-06-13T02:23:20.324Z,0.00
2018-06-13T02:25:13.255Z,0.00
2018-06-13T02:26:13.255Z,0.00
2018-06-13T02:28:06.167Z,0.00
2018-06-13T02:29:06.184Z,0.00
2018-06-13T02:30:59.118Z,4.00
2018-06-13T02:31:59.125Z,4.00
2018-06-13T02:33:52.025Z,0.00
2018-06-13T02:34:52.047Z,0.00
2018-06-13T02:36:44.975Z,4.00
2018-06-13T02:37:44.976Z,4.00
2018-06-13T02:39:37.881Z,4.00
2018-06-13T02:40:37.904Z,4.00
2018-06-13T02:42:30.832Z,8.00
2018-06-13T02:43:30.832Z,8.00
2018-06-13T02:45:23.760Z,8.00
2018-06-13T02:46:23.762Z,12.00
2018-06-13T02:48:16.670Z,12.00
2018-06-13T02:49:16.691Z,16.00
2018-06-13T02:51:09.620Z,20.00
2018-06-13T02:52:09.618Z,16.00
2018-06-13T02:54:02.527Z,20.00
2018-06-13T02:55:02.548Z,20.00
2018-06-13T02:56:55.485Z,24.00
2018-06-13T02:57:55.474Z,24.00
2018-06-13T02:59:48.385Z,28.00
2018-06-13T03:00:48.404Z,32.00
2018-06-13T03:02:41.334Z,32.00
2018-06-13T03:03:41.349Z,32.00
2018-06-13T03:05:34.276Z,40.00
2018-06-13T03:06:34.269Z,44.00
2018-06-13T03:08:27.176Z,52.00
2018-06-13T03:09:27.202Z,56.00
2018-06-13T03:11:20.130Z,64.00
2018-06-13T03:12:20.132Z,72.00
2018-06-13T03:14:13.037Z,84.00
2018-06-13T03:15:13.059Z,92.00
2018-06-13T03:17:05.995Z,104.00
2018-06-13T03:18:05.992Z,112.00
2018-06-13T03:19:58.902Z,124.00
2018-06-13T03:20:58.937Z,132.00
2018-06-13T03:22:51.849Z,148.00
2018-06-13T03:23:51.851Z,152.00
2018-06-13T03:25:44.761Z,160.00
2018-06-13T03:26:44.781Z,168.00
2018-06-13T03:28:37.708Z,188.00
2018-06-13T03:29:37.706Z,196.00
2018-06-13T03:31:30.638Z,220.00
2018-06-13T03:32:30.637Z,232.00
2018-06-13T03:34:23.545Z,264.00
2018-06-13T03:35:23.564Z,288.00
2018-06-13T03:37:16.494Z,336.00
2018-06-13T03:38:16.493Z,352.00
2018-06-13T03:40:09.404Z,360.00
2018-06-13T03:41:09.428Z,364.00
2018-06-13T03:43:02.357Z,380.00
2018-06-13T03:44:02.353Z,392.00
2018-06-13T03:45:55.266Z,416.00
2018-06-13T03:46:55.286Z,428.00
2018-06-13T03:48:48.214Z,456.00
2018-06-13T03:49:48.214Z,476.00
2018-06-13T03:51:41.142Z,508.00
2018-06-13T03:52:41.146Z,524.00
2018-06-13T03:54:34.052Z,544.00
2018-06-13T03:55:34.074Z,560.00
2018-06-13T03:57:27.005Z,628.00
2018-06-13T03:58:27.004Z,676.00
2018-06-13T04:00:19.914Z,704.00
2018-06-13T04:01:19.940Z,708.00
2018-06-13T04:03:12.861Z,756.00
2018-06-13T04:04:12.861Z,804.00
2018-06-13T04:06:05.771Z,904.00
2018-06-13T04:07:05.795Z,956.00
2018-06-13T04:08:58.717Z,1168.00
2018-06-13T04:09:58.717Z,1232.00
2018-06-13T04:11:51.626Z,1396.00
2018-06-13T04:12:51.646Z,1440.00
2018-06-13T04:14:44.575Z,1520.00
2018-06-13T04:15:44.577Z,1584.00
2018-06-13T04:17:37.602Z,1584.00
2018-06-13T04:18:37.508Z,1504.00
2018-06-13T04:20:30.421Z,1460.00
2018-06-13T04:21:30.442Z,1500.00
2018-06-13T04:23:23.372Z,1572.00
2018-06-13T04:24:23.373Z,1592.00
2018-06-13T04:26:16.284Z,1648.00
2018-06-13T04:27:16.308Z,1700.00
2018-06-13T04:29:09.242Z,1808.00
2018-06-13T04:30:09.233Z,1892.00
2018-06-13T04:32:02.145Z,1788.00
2018-06-13T04:33:02.162Z,1824.00
2018-06-13T04:34:55.098Z,1960.00
2018-06-13T04:35:55.106Z,2068.00
2018-06-13T04:37:48.026Z,2384.00
2018-06-13T04:38:48.025Z,2412.00
2018-06-13T04:40:40.933Z,1956.00
2018-06-13T04:41:40.955Z,1844.00
2018-06-13T04:43:33.890Z,1940.00
2018-06-13T04:44:33.887Z,1908.00
2018-06-13T04:46:26.971Z,1948.00
2018-06-13T04:47:26.997Z,1880.00
2018-06-13T04:49:19.923Z,1348.00
2018-06-13T04:50:19.960Z,1164.00
2018-06-13T04:52:12.835Z,1088.00
2018-06-13T04:53:12.856Z,1104.00
2018-06-13T04:55:05.805Z,1136.00
2018-06-13T04:56:05.786Z,1104.00
2018-06-13T04:57:58.699Z,1160.00
2018-06-13T04:58:58.719Z,1348.00
2018-06-13T05:00:51.648Z,1684.00
2018-06-13T05:01:51.649Z,1956.00
2018-06-13T05:03:44.576Z,2288.00
2018-06-13T05:04:44.576Z,2396.00
2018-06-13T05:06:37.982Z,2532.00
2018-06-13T05:07:38.002Z,2724.00
2018-06-13T05:09:31.137Z,3184.00
2018-06-13T05:10:31.134Z,3408.00
2018-06-13T05:12:24.039Z,3780.00
2018-06-13T05:13:24.059Z,4012.00
2018-06-13T05:15:16.992Z,4312.00
2018-06-13T05:16:16.991Z,4428.00
2018-06-13T05:18:09.900Z,4620.00
2018-06-13T05:19:09.922Z,4680.00
2018-06-13T05:21:02.853Z,4808.00
2018-06-13T05:22:02.853Z,4884.00
2018-06-13T05:23:55.783Z,4988.00
2018-06-13T05:24:55.786Z,5052.00
2018-06-13T05:26:48.692Z,5060.00
2018-06-13T05:27:48.712Z,5032.00
2018-06-13T05:29:41.641Z,4888.00
2018-06-13T05:30:41.643Z,4728.00
2018-06-13T05:32:34.551Z,4796.00
2018-06-13T05:33:34.572Z,4936.00
2018-06-13T05:35:27.504Z,5120.00
2018-06-13T05:36:27.501Z,5216.00
2018-06-13T05:38:20.410Z,5152.00
2018-06-13T05:39:20.434Z,4968.00
2018-06-13T05:41:13.363Z,4824.00
2018-06-13T05:42:13.361Z,4788.00
2018-06-13T05:44:06.278Z,4884.00
2018-06-13T05:45:06.304Z,4992.00
2018-06-13T05:46:59.233Z,5280.00
2018-06-13T05:47:59.232Z,5324.00
2018-06-13T05:49:52.162Z,5360.00
2018-06-13T05:50:52.161Z,5520.00
2018-06-13T05:52:45.070Z,6216.00
2018-06-13T05:53:45.093Z,6128.00
2018-06-13T05:55:38.020Z,5312.00
2018-06-13T05:56:38.021Z,5016.00
2018-06-13T05:58:30.929Z,5008.00
2018-06-13T05:59:30.952Z,4956.00
2018-06-13T06:01:23.886Z,4888.00
2018-06-13T06:02:23.883Z,5008.00
2018-06-13T06:04:16.934Z,5124.00
2018-06-13T06:05:16.956Z,5112.00
2018-06-13T06:07:09.886Z,5108.00
2018-06-13T06:08:09.888Z,5108.00
2018-06-13T06:10:02.800Z,5236.00
2018-06-13T06:11:02.818Z,5284.00
2018-06-13T06:12:55.747Z,5336.00
2018-06-13T06:13:55.749Z,5528.00
2018-06-13T06:15:48.803Z,5660.00
2018-06-13T06:16:48.805Z,5700.00
2018-06-13T06:18:41.718Z,5956.00
2018-06-13T06:19:41.739Z,6056.00
2018-06-13T06:21:34.666Z,6056.00
2018-06-13T06:22:34.670Z,5896.00
2018-06-13T06:24:27.581Z,5904.00
2018-06-13T06:25:27.604Z,6292.00
2018-06-13T06:27:20.534Z,7676.00
2018-06-13T06:28:20.533Z,8684.00
2018-06-13T06:30:13.444Z,9092.00
2018-06-13T06:31:13.465Z,9008.00
2018-06-13T06:33:06.397Z,8308.00
2018-06-13T06:34:06.397Z,8224.00
2018-06-13T06:35:59.329Z,9032.00
2018-06-13T06:36:59.366Z,9328.00
2018-06-13T06:38:52.239Z,8532.00
2018-06-13T06:39:52.266Z,8956.00
2018-06-13T06:41:45.199Z,8304.00
2018-06-13T06:42:45.198Z,8008.00
2018-06-13T06:44:38.114Z,7280.00
2018-06-13T06:45:38.134Z,7472.00
2018-06-13T06:47:31.065Z,9332.00
2018-06-13T06:48:31.067Z,9700.00
2018-06-13T06:50:23.983Z,9832.00
2018-06-13T06:51:24.004Z,9508.00
2018-06-13T06:53:16.932Z,10840.00
2018-06-13T06:54:16.933Z,10832.00
2018-06-13T06:56:09.848Z,9640.00
2018-06-13T06:57:09.873Z,10108.00
2018-06-13T06:59:02.808Z,13076.00
2018-06-13T07:00:02.807Z,12416.00
2018-06-13T07:01:55.722Z,9560.00
2018-06-13T07:02:55.744Z,9404.00
2018-06-13T07:04:48.679Z,9496.00
2018-06-13T07:05:48.682Z,10380.00
2018-06-13T07:07:41.615Z,12208.00
2018-06-13T07:08:41.616Z,13664.00
2018-06-13T07:10:34.533Z,13132.00
2018-06-13T07:11:34.553Z,12624.00
2018-06-13T07:13:27.485Z,12128.00
2018-06-13T07:14:27.488Z,13632.00
2018-06-13T07:16:20.404Z,10984.00
2018-06-13T07:17:20.433Z,8928.00
2018-06-13T07:19:13.373Z,7780.00
2018-06-13T07:20:13.372Z,7344.00
2018-06-13T07:22:06.282Z,8052.00
2018-06-13T07:23:06.360Z,7584.00
2018-06-13T07:24:59.242Z,5348.00
2018-06-13T07:25:59.241Z,3552.00
2018-06-13T07:27:52.154Z,5456.00
2018-06-13T07:28:52.178Z,5668.00
2018-06-13T07:30:45.114Z,3220.00
2018-06-13T07:31:45.121Z,2284.00
2018-06-13T07:33:38.108Z,2992.00
2018-06-13T07:34:38.051Z,3396.00
2018-06-13T07:36:30.969Z,5076.00
2018-06-13T07:37:31.002Z,5732.00
2018-06-13T07:39:23.924Z,6516.00
2018-06-13T07:40:23.925Z,6616.00
2018-06-13T07:42:16.835Z,7104.00
2018-06-13T07:43:16.856Z,7472.00
2018-06-13T07:45:09.789Z,7804.00
2018-06-13T07:46:09.791Z,8224.00
2018-06-13T07:48:02.704Z,9128.00
2018-06-13T07:49:02.731Z,9660.00
2018-06-13T07:50:55.854Z,10028.00
2018-06-13T07:51:55.859Z,10244.00
2018-06-13T07:53:48.792Z,10324.00
2018-06-13T07:54:48.788Z,10300.00
2018-06-13T07:56:41.704Z,10996.00
2018-06-13T07:57:41.726Z,11480.00
2018-06-13T07:59:34.660Z,12516.00
2018-06-13T08:00:34.661Z,12856.00
2018-06-13T08:02:27.571Z,12848.00
2018-06-13T08:03:27.594Z,12720.00
2018-06-13T08:05:20.529Z,12788.00
2018-06-13T08:06:20.539Z,13008.00
2018-06-13T08:08:13.449Z,13568.00
2018-06-13T08:09:13.477Z,13504.00
2018-06-13T08:11:06.408Z,12768.00
2018-06-13T08:12:06.417Z,12536.00
2018-06-13T08:13:59.330Z,11160.00
2018-06-13T08:14:59.356Z,10792.00
2018-06-13T08:16:52.328Z,11384.00
2018-06-13T08:17:52.292Z,11508.00
2018-06-13T08:19:45.227Z,7960.00
2018-06-13T08:20:45.231Z,5944.00
2018-06-13T08:22:38.145Z,6324.00
2018-06-13T08:23:38.172Z,6628.00
2018-06-13T08:25:31.106Z,5628.00
2018-06-13T08:26:31.113Z,5868.00
2018-06-13T08:28:24.023Z,5848.00
2018-06-13T08:29:24.045Z,5916.00
2018-06-13T08:31:16.977Z,6188.00
2018-06-13T08:32:16.981Z,7012.00
2018-06-13T08:34:09.891Z,6816.00
2018-06-13T08:35:09.915Z,6512.00
2018-06-13T08:37:02.846Z,6728.00
2018-06-13T08:38:02.848Z,7028.00
2018-06-13T08:39:55.800Z,8092.00
2018-06-13T08:40:55.783Z,8272.00
2018-06-13T08:42:48.721Z,9240.00
2018-06-13T08:43:48.726Z,9396.00
2018-06-13T08:45:41.651Z,9652.00
2018-06-13T08:46:41.655Z,9608.00
2018-06-13T08:48:34.600Z,10364.00
2018-06-13T08:49:34.589Z,10156.00
2018-06-13T08:51:27.524Z,9892.00
2018-06-13T08:52:27.523Z,9676.00
2018-06-13T08:54:20.438Z,10336.00
2018-06-13T08:55:20.460Z,11008.00
2018-06-13T08:57:13.398Z,10904.00
2018-06-13T08:58:13.400Z,9780.00
2018-06-13T09:00:06.312Z,7928.00
2018-06-13T09:01:06.336Z,7680.00
2018-06-13T09:02:59.272Z,6356.00
2018-06-13T09:03:59.278Z,7224.00
2018-06-13T09:05:52.209Z,7560.00
2018-06-13T09:06:52.218Z,6532.00
2018-06-13T09:08:45.130Z,5096.00
2018-06-13T09:09:45.156Z,4784.00
2018-06-13T09:11:38.089Z,5668.00
2018-06-13T09:12:38.094Z,6360.00
2018-06-13T09:14:31.008Z,7212.00
2018-06-13T09:15:31.028Z,7076.00
2018-06-13T09:17:23.972Z,7636.00
2018-06-13T09:18:23.965Z,8452.00
2018-06-13T09:20:16.883Z,9432.00
2018-06-13T09:21:16.900Z,9868.00
2018-06-13T09:23:09.835Z,10372.00
2018-06-13T09:24:09.838Z,10616.00
2018-06-13T09:26:02.754Z,10864.00
2018-06-13T09:27:02.781Z,11224.00
2018-06-13T09:28:55.711Z,12676.00
2018-06-13T09:29:55.713Z,12952.00
2018-06-13T09:31:48.657Z,12844.00
2018-06-13T09:32:48.653Z,12712.00
2018-06-13T09:34:41.570Z,13572.00
2018-06-13T09:35:41.597Z,13308.00
2018-06-13T09:37:34.547Z,13644.00
2018-06-13T09:38:34.532Z,14216.00
2018-06-13T09:40:27.447Z,14764.00
2018-06-13T09:41:27.476Z,15096.00
2018-06-13T09:43:20.405Z,15700.00
2018-06-13T09:44:20.410Z,16000.00
2018-06-13T09:46:13.326Z,16864.00
2018-06-13T09:47:15.130Z,17312.00
2018-06-13T09:49:06.293Z,18368.00
2018-06-13T09:50:06.318Z,18784.00
2018-06-13T09:51:59.219Z,19264.00
2018-06-13T09:52:59.241Z,19104.00
2018-06-13T09:54:52.223Z,18496.00
2018-06-13T09:55:52.185Z,18016.00
2018-06-13T09:57:45.127Z,17216.00
2018-06-13T09:58:45.129Z,16460.00
2018-06-13T10:00:38.052Z,14908.00
2018-06-13T10:01:38.090Z,14112.00
2018-06-13T10:03:31.013Z,12912.00
2018-06-13T10:04:31.057Z,12752.00
2018-06-13T10:06:23.937Z,12980.00
2018-06-13T10:07:23.965Z,13516.00
2018-06-13T10:09:16.900Z,14568.00
2018-06-13T10:10:16.910Z,15232.00
2018-06-13T10:12:09.824Z,17344.00
2018-06-13T10:13:09.853Z,18144.00
2018-06-13T10:15:02.788Z,18080.00
2018-06-13T10:16:02.797Z,17600.00
2018-06-13T10:17:55.731Z,15860.00
2018-06-13T10:18:55.738Z,14516.00
2018-06-13T10:20:48.658Z,11804.00
2018-06-13T10:21:48.684Z,10368.00
2018-06-13T10:23:41.627Z,8028.00
2018-06-13T10:24:41.630Z,7224.00
2018-06-13T10:26:34.604Z,5896.00
2018-06-13T10:27:34.575Z,5412.00
2018-06-13T10:29:27.517Z,5068.00
2018-06-13T10:30:27.518Z,5004.00
2018-06-13T10:32:20.436Z,4948.00
2018-06-13T10:33:20.462Z,4732.00
2018-06-13T10:35:13.400Z,5264.00
2018-06-13T10:36:13.409Z,5752.00
2018-06-13T10:38:06.320Z,6460.00
2018-06-13T10:39:06.349Z,7180.00
2018-06-13T10:40:59.283Z,8412.00
2018-06-13T10:41:59.290Z,8732.00
2018-06-13T10:43:52.222Z,9316.00
2018-06-13T10:44:52.231Z,9496.00
2018-06-13T10:46:45.141Z,9920.00
2018-06-13T10:47:45.163Z,10212.00
2018-06-13T10:49:38.103Z,10728.00
2018-06-13T10:50:38.114Z,10712.00
2018-06-13T10:52:31.031Z,9996.00
2018-06-13T10:53:31.054Z,9468.00
2018-06-13T10:55:24.000Z,8816.00
2018-06-13T10:56:24.000Z,8752.00
2018-06-13T10:58:16.917Z,9236.00
2018-06-13T10:59:16.943Z,9492.00
2018-06-13T11:01:09.885Z,9528.00
2018-06-13T11:02:09.886Z,9672.00
2018-06-13T11:04:02.804Z,10216.00
2018-06-13T11:05:02.833Z,10540.00
2018-06-13T11:06:55.764Z,11300.00
2018-06-13T11:07:55.772Z,11764.00
2018-06-13T11:09:48.705Z,13056.00
2018-06-13T11:10:48.707Z,13768.00
2018-06-13T11:12:41.620Z,15176.00
2018-06-13T11:13:41.645Z,15952.00
2018-06-13T11:15:34.582Z,17408.00
2018-06-13T11:16:34.590Z,17952.00
2018-06-13T11:18:27.510Z,18752.00
2018-06-13T11:19:27.536Z,18976.00
2018-06-13T11:21:20.481Z,18784.00
2018-06-13T11:22:20.483Z,18560.00
2018-06-13T11:24:13.403Z,18400.00
2018-06-13T11:25:13.429Z,18208.00
2018-06-13T11:27:06.377Z,18048.00
2018-06-13T11:28:06.381Z,17984.00
2018-06-13T11:29:59.303Z,18048.00
2018-06-13T11:30:59.329Z,17984.00
2018-06-13T11:32:52.264Z,17536.00
2018-06-13T11:33:52.274Z,17408.00
2018-06-13T11:35:45.230Z,17568.00
2018-06-13T11:36:45.218Z,17600.00
2018-06-13T11:38:38.138Z,18016.00
2018-06-13T11:39:38.167Z,18336.00
2018-06-13T11:41:31.174Z,18560.00
2018-06-13T11:42:31.115Z,18496.00
2018-06-13T11:44:24.038Z,16896.00
2018-06-13T11:45:24.063Z,15648.00
2018-06-13T11:47:17.006Z,14936.00
2018-06-13T11:48:17.013Z,15136.00
2018-06-13T11:50:09.932Z,14860.00
2018-06-13T11:51:09.961Z,14244.00
2018-06-13T11:53:02.907Z,12272.00
2018-06-13T11:54:02.907Z,11276.00
2018-06-13T11:55:55.830Z,11584.00
2018-06-13T11:56:55.856Z,11348.00
2018-06-13T11:58:48.804Z,10392.00
2018-06-13T11:59:48.810Z,10960.00
2018-06-13T12:01:41.813Z,13152.00
2018-06-13T12:02:41.766Z,14196.00
2018-06-13T12:04:34.687Z,14856.00
2018-06-13T12:05:34.712Z,14512.00
2018-06-13T12:07:27.652Z,13604.00
2018-06-13T12:08:27.659Z,12844.00
2018-06-13T12:10:20.580Z,9352.00
2018-06-13T12:11:20.608Z,7964.00
2018-06-13T12:13:13.547Z,6452.00
2018-06-13T12:14:13.554Z,6304.00
2018-06-13T12:16:06.477Z,7064.00
2018-06-13T12:17:06.506Z,7508.00
2018-06-13T12:18:59.446Z,7860.00
2018-06-13T12:19:59.452Z,7676.00
2018-06-13T12:21:52.397Z,7968.00
2018-06-13T12:22:52.408Z,8612.00
2018-06-13T12:24:45.315Z,9812.00
2018-06-13T12:25:45.341Z,10440.00
2018-06-13T12:27:38.315Z,11436.00
2018-06-13T12:28:38.300Z,11756.00
2018-06-13T12:30:31.204Z,12012.00
2018-06-13T12:31:31.231Z,12004.00
2018-06-13T12:33:24.165Z,12540.00
2018-06-13T12:34:24.176Z,13176.00
2018-06-13T12:36:17.089Z,14536.00
2018-06-13T12:37:17.117Z,15172.00
2018-06-13T12:39:10.060Z,16216.00
2018-06-13T12:40:10.077Z,16624.00
2018-06-13T12:42:02.986Z,17120.00
2018-06-13T12:43:03.011Z,17088.00
2018-06-13T12:44:55.959Z,16400.00
2018-06-13T12:45:55.960Z,16188.00
2018-06-13T12:47:48.907Z,14612.00
2018-06-13T12:48:48.908Z,13008.00
2018-06-13T12:50:41.836Z,11068.00
2018-06-13T12:51:41.863Z,11024.00
2018-06-13T12:53:34.810Z,10000.00
2018-06-13T12:54:34.811Z,9284.00
2018-06-13T12:56:27.752Z,8240.00
2018-06-13T12:57:27.765Z,7860.00
2018-06-13T12:59:20.711Z,8500.00
2018-06-13T13:00:20.715Z,9264.00
2018-06-13T13:02:13.639Z,10264.00
2018-06-13T13:03:13.669Z,10400.00
2018-06-13T13:05:06.613Z,9948.00
2018-06-13T13:06:06.615Z,9660.00
2018-06-13T13:07:59.536Z,9352.00
2018-06-13T13:08:59.564Z,9444.00
2018-06-13T13:10:52.499Z,10036.00
2018-06-13T13:11:52.508Z,10324.00
2018-06-13T13:13:45.456Z,10408.00
2018-06-13T13:14:45.455Z,10416.00
2018-06-13T13:16:38.361Z,10376.00
2018-06-13T13:17:38.391Z,10600.00
2018-06-13T13:19:31.326Z,11768.00
2018-06-13T13:20:31.334Z,12696.00
2018-06-13T13:22:24.248Z,14296.00
2018-06-13T13:23:24.273Z,14896.00
2018-06-13T13:25:17.204Z,15364.00
2018-06-13T13:26:17.211Z,15344.00
2018-06-13T13:28:10.133Z,14788.00
2018-06-13T13:29:10.157Z,14588.00
2018-06-13T13:31:03.091Z,13956.00
2018-06-13T13:32:03.100Z,13544.00
2018-06-13T13:33:56.017Z,13324.00
2018-06-13T13:34:56.046Z,12828.00
2018-06-13T13:36:48.980Z,11824.00
2018-06-13T13:37:48.990Z,11120.00
2018-06-13T13:39:41.901Z,10908.00
2018-06-13T13:40:41.934Z,11504.00
2018-06-13T13:42:34.867Z,13192.00
2018-06-13T13:43:34.874Z,13820.00
2018-06-13T13:45:27.831Z,13956.00
2018-06-13T13:46:27.819Z,12980.00
2018-06-13T13:48:20.738Z,10676.00
2018-06-13T13:49:20.766Z,9244.00
2018-06-13T13:51:13.697Z,7360.00
2018-06-13T13:52:13.720Z,6760.00
2018-06-13T13:54:06.695Z,5708.00
2018-06-13T13:55:06.653Z,5324.00
2018-06-13T13:56:59.655Z,4852.00
2018-06-13T13:57:59.645Z,4556.00
2018-06-13T13:59:52.545Z,4048.00
2018-06-13T14:00:52.579Z,3812.00
2018-06-13T14:02:45.481Z,3932.00
2018-06-13T14:03:45.487Z,4372.00
2018-06-13T14:05:38.421Z,5508.00
2018-06-13T14:06:38.431Z,6116.00
2018-06-13T14:08:31.348Z,6976.00
2018-06-13T14:09:31.377Z,7320.00
2018-06-13T14:11:24.312Z,7648.00
2018-06-13T14:12:24.320Z,7888.00
2018-06-13T14:14:17.294Z,8816.00
2018-06-13T14:15:17.260Z,9388.00
2018-06-13T14:17:10.191Z,10524.00
2018-06-13T14:18:10.202Z,11408.00
2018-06-13T14:20:03.116Z,12932.00
2018-06-13T14:21:03.141Z,13220.00
2018-06-13T14:22:56.082Z,13236.00
2018-06-13T14:23:56.086Z,12892.00
2018-06-13T14:25:49.004Z,12628.00
2018-06-13T14:26:49.055Z,12668.00
2018-06-13T14:28:41.974Z,12696.00
2018-06-13T14:29:41.997Z,12820.00
2018-06-13T14:31:34.920Z,12868.00
2018-06-13T14:32:34.931Z,12872.00
2018-06-13T14:34:27.850Z,12824.00
2018-06-13T14:35:27.878Z,12400.00
2018-06-13T14:37:20.872Z,11328.00
2018-06-13T14:38:20.823Z,10488.00
2018-06-13T14:40:13.742Z,9156.00
2018-06-13T14:41:13.773Z,8656.00
2018-06-13T14:43:06.708Z,8160.00
2018-06-13T14:44:06.722Z,8536.00
2018-06-13T14:45:59.631Z,10044.00
2018-06-13T14:46:59.660Z,10660.00
2018-06-13T14:48:52.604Z,11712.00
2018-06-13T14:49:52.606Z,12260.00
2018-06-13T14:51:45.626Z,12820.00
2018-06-13T14:52:45.551Z,13048.00
2018-06-13T14:54:38.465Z,12992.00
2018-06-13T14:55:38.530Z,12804.00
2018-06-13T14:57:31.429Z,11964.00
2018-06-13T14:58:31.439Z,11260.00
2018-06-13T15:00:24.355Z,9892.00
2018-06-13T15:01:24.384Z,9476.00
2018-06-13T15:03:17.327Z,8948.00
2018-06-13T15:04:17.335Z,8980.00
2018-06-13T15:06:10.256Z,9192.00
2018-06-13T15:07:10.282Z,9504.00
2018-06-13T15:09:03.299Z,10528.00
2018-06-13T15:10:03.227Z,10908.00
2018-06-13T15:11:56.263Z,10448.00
2018-06-13T15:12:56.207Z,10104.00
2018-06-13T15:14:49.095Z,9424.00
2018-06-13T15:15:49.120Z,9096.00
2018-06-13T15:17:42.056Z,8324.00
2018-06-13T15:18:42.065Z,7828.00
2018-06-13T15:20:34.986Z,7324.00
2018-06-13T15:21:35.015Z,7536.00
2018-06-13T15:23:27.955Z,8280.00
2018-06-13T15:24:27.968Z,8988.00
2018-06-13T15:26:20.877Z,10324.00
2018-06-13T15:27:20.946Z,10680.00
2018-06-13T15:29:13.843Z,10640.00
2018-06-13T15:30:13.851Z,10812.00
2018-06-13T15:32:06.768Z,11160.00
2018-06-13T15:33:06.795Z,11208.00
2018-06-13T15:34:59.735Z,11004.00
2018-06-13T15:35:59.743Z,10720.00
2018-06-13T15:37:52.867Z,9376.00
2018-06-13T15:38:52.819Z,8400.00
2018-06-13T15:40:45.735Z,6636.00
2018-06-13T15:41:45.764Z,6316.00
2018-06-13T15:43:38.700Z,6144.00
2018-06-13T15:44:38.709Z,6312.00
2018-06-13T15:46:31.627Z,6648.00
2018-06-13T15:47:31.655Z,6912.00
2018-06-13T15:49:24.632Z,7724.00
2018-06-13T15:50:24.680Z,8232.00
2018-06-13T15:52:17.515Z,9040.00
2018-06-13T15:53:17.547Z,9192.00
2018-06-13T15:55:10.497Z,9344.00
2018-06-13T15:56:10.498Z,9204.00
2018-06-13T15:58:03.420Z,8536.00
2018-06-13T15:59:03.488Z,8416.00
2018-06-13T16:00:56.386Z,8140.00
2018-06-13T16:01:56.447Z,8008.00
2018-06-13T16:03:49.325Z,7632.00
2018-06-13T16:04:49.335Z,7732.00
2018-06-13T16:06:42.249Z,8452.00
2018-06-13T16:07:42.279Z,8648.00
2018-06-13T16:09:35.221Z,8140.00
2018-06-13T16:10:35.221Z,7252.00
2018-06-13T16:12:28.136Z,5724.00
2018-06-13T16:13:28.166Z,5400.00
2018-06-13T16:15:21.104Z,5548.00
2018-06-13T16:16:21.104Z,6024.00
2018-06-13T16:18:14.022Z,6384.00
2018-06-13T16:19:14.051Z,6260.00
2018-06-13T16:21:06.986Z,5996.00
2018-06-13T16:22:06.999Z,5916.00
2018-06-13T16:23:59.913Z,5784.00
2018-06-13T16:24:59.934Z,5692.00
2018-06-13T16:26:52.980Z,5728.00
2018-06-13T16:27:52.887Z,5628.00
2018-06-13T16:29:45.810Z,5144.00
2018-06-13T16:30:45.835Z,4956.00
2018-06-13T16:32:38.772Z,4720.00
2018-06-13T16:33:38.778Z,4600.00
2018-06-13T16:35:32.451Z,4388.00
2018-06-13T16:36:32.450Z,4292.00
2018-06-13T16:38:25.369Z,4212.00
2018-06-13T16:39:25.398Z,4192.00
2018-06-13T16:41:18.334Z,4280.00
2018-06-13T16:42:18.335Z,4300.00
2018-06-13T16:44:11.256Z,4544.00
2018-06-13T16:45:11.280Z,4828.00
2018-06-13T16:47:04.215Z,5212.00
2018-06-13T16:48:04.225Z,5264.00
2018-06-13T16:49:57.136Z,5296.00
2018-06-13T16:50:57.160Z,5192.00
2018-06-13T16:52:50.097Z,5032.00
2018-06-13T16:53:50.118Z,5112.00
2018-06-13T16:55:43.081Z,5304.00
2018-06-13T16:56:43.079Z,5136.00
2018-06-13T16:58:36.012Z,4368.00
2018-06-13T16:59:36.029Z,3952.00
2018-06-13T17:01:29.484Z,3260.00
2018-06-13T17:02:29.539Z,3188.00
2018-06-13T17:04:22.439Z,3388.00
2018-06-13T17:05:22.480Z,3460.00
2018-06-13T17:07:15.427Z,3412.00
2018-06-13T17:08:15.430Z,3492.00
2018-06-13T17:10:08.380Z,3940.00
2018-06-13T17:11:08.412Z,4028.00
2018-06-13T17:13:01.342Z,4100.00
2018-06-13T17:14:01.350Z,4140.00
2018-06-13T17:15:54.257Z,4268.00
2018-06-13T17:16:54.292Z,4340.00
2018-06-13T17:18:47.235Z,4500.00
2018-06-13T17:19:47.234Z,4644.00
2018-06-13T17:21:40.181Z,5204.00
2018-06-13T17:22:40.172Z,5684.00
2018-06-13T17:24:33.079Z,6352.00
2018-06-13T17:25:33.103Z,6316.00
2018-06-13T17:27:26.040Z,5860.00
2018-06-13T17:28:26.041Z,5576.00
2018-06-13T17:30:18.961Z,4984.00
2018-06-13T17:31:18.991Z,4652.00
2018-06-13T17:33:11.926Z,4876.00
2018-06-13T17:34:11.932Z,4860.00
2018-06-13T17:36:04.842Z,4768.00